sensor_id;sensor_type;location;lat;lon;timestamp;pressure;altitude;pressure_sealevel;temperature;humidity
8573;BME280;4324;42.012;24.872;2023-09-19T00:01:39;99333.66;;;18.63;60.87
8573;BME280;4324;42.012;24.872;2023-09-19T00:04:08;99348.28;;;18.68;60.76
8573;BME280;4324;42.012;24.872;2023-09-19T00:06:38;99359.81;;;18.68;60.83
8573;BME280;4324;42.012;24.872;2023-09-19T00:09:05;99345.41;;;18.62;60.93
8573;BME280;4324;42.012;24.872;2023-09-19T00:11:36;99347.06;;;18.63;61.03
8573;BME280;4324;42.012;24.872;2023-09-19T00:14:03;99346.88;;;18.58;61.09
8573;BME280;4324;42.012;24.872;2023-09-19T00:16:30;99330.59;;;18.47;61.26
8573;BME280;4324;42.012;24.872;2023-09-19T00:18:58;99342.75;;;18.49;61.07
8573;BME280;4324;42.012;24.872;2023-09-19T00:21:32;99343.78;;;18.48;61.32
8573;BME280;4324;42.012;24.872;2023-09-19T00:23:59;99325.25;;;18.33;61.45
8573;BME280;4324;42.012;24.872;2023-09-19T00:26:26;99344.84;;;18.41;61.76
8573;BME280;4324;42.012;24.872;2023-09-19T00:28:56;99342.38;;;18.32;61.68
8573;BME280;4324;42.012;24.872;2023-09-19T00:31:34;99345.47;;;18.29;61.89
8573;BME280;4324;42.012;24.872;2023-09-19T00:34:03;99347.31;;;18.35;61.83
8573;BME280;4324;42.012;24.872;2023-09-19T00:36:37;99338.03;;;18.31;61.90
8573;BME280;4324;42.012;24.872;2023-09-19T00:39:05;99349.78;;;18.30;61.83
8573;BME280;4324;42.012;24.872;2023-09-19T00:41:34;99342.38;;;18.26;61.92
8573;BME280;4324;42.012;24.872;2023-09-19T00:44:01;99331.03;;;18.24;61.92
8573;BME280;4324;42.012;24.872;2023-09-19T00:46:30;99330.19;;;18.23;62.03
8573;BME280;4324;42.012;24.872;2023-09-19T00:48:58;99341.56;;;18.19;61.94
8573;BME280;4324;42.012;24.872;2023-09-19T00:51:25;99334.13;;;18.14;61.92
8573;BME280;4324;42.012;24.872;2023-09-19T00:53:54;99333.50;;;18.12;62.04
8573;BME280;4324;42.012;24.872;2023-09-19T00:56:22;99340.94;;;18.10;62.28
8573;BME280;4324;42.012;24.872;2023-09-19T00:58:49;99330.81;;;18.05;62.39
8573;BME280;4324;42.012;24.872;2023-09-19T01:01:16;99326.91;;;17.95;62.47
8573;BME280;4324;42.012;24.872;2023-09-19T01:03:44;99320.75;;;17.87;62.49
8573;BME280;4324;42.012;24.872;2023-09-19T01:06:11;99331.88;;;17.91;62.50
8573;BME280;4324;42.012;24.872;2023-09-19T01:08:38;99335.97;;;17.94;62.62
8573;BME280;4324;42.012;24.872;2023-09-19T01:11:13;99317.44;;;17.85;62.84
8573;BME280;4324;42.012;24.872;2023-09-19T01:13:48;99333.13;;;17.95;62.62
8573;BME280;4324;42.012;24.872;2023-09-19T01:16:26;99336.78;;;17.94;62.72
8573;BME280;4324;42.012;24.872;2023-09-19T01:19:04;99336.78;;;17.94;62.50
8573;BME280;4324;42.012;24.872;2023-09-19T01:21:39;99333.69;;;17.90;62.76
8573;BME280;4324;42.012;24.872;2023-09-19T01:24:54;99332.69;;;17.85;63.07
8573;BME280;4324;42.012;24.872;2023-09-19T01:27:53;99328.13;;;17.79;63.52
8573;BME280;4324;42.012;24.872;2023-09-19T01:30:33;99325.69;;;17.77;63.29
8573;BME280;4324;42.012;24.872;2023-09-19T01:33:05;99312.63;;;17.67;63.55
8573;BME280;4324;42.012;24.872;2023-09-19T01:35:33;99321.50;;;17.68;63.76
8573;BME280;4324;42.012;24.872;2023-09-19T01:38:04;99318.41;;;17.64;63.87
8573;BME280;4324;42.012;24.872;2023-09-19T01:40:40;99321.06;;;17.64;63.95
8573;BME280;4324;42.012;24.872;2023-09-19T01:43:14;99313.25;;;17.63;63.83
8573;BME280;4324;42.012;24.872;2023-09-19T01:45:50;99316.97;;;17.69;63.90
8573;BME280;4324;42.012;24.872;2023-09-19T01:48:25;99298.81;;;17.57;63.62
8573;BME280;4324;42.012;24.872;2023-09-19T01:51:00;99320.69;;;17.67;63.87
8573;BME280;4324;42.012;24.872;2023-09-19T01:53:33;99312.63;;;17.61;63.88
8573;BME280;4324;42.012;24.872;2023-09-19T01:56:01;99291.81;;;17.50;64.06
8573;BME280;4324;42.012;24.872;2023-09-19T01:58:35;99311.63;;;17.62;63.94
8573;BME280;4324;42.012;24.872;2023-09-19T02:01:07;99308.53;;;17.58;63.83
8573;BME280;4324;42.012;24.872;2023-09-19T02:03:36;99311.63;;;17.62;64.11
8573;BME280;4324;42.012;24.872;2023-09-19T02:06:04;99314.47;;;17.60;64.00
8573;BME280;4324;42.012;24.872;2023-09-19T02:08:37;99299.44;;;17.59;63.93
8573;BME280;4324;42.012;24.872;2023-09-19T02:11:04;99307.09;;;17.62;63.96
8573;BME280;4324;42.012;24.872;2023-09-19T02:13:31;99310.16;;;17.59;64.06
8573;BME280;4324;42.012;24.872;2023-09-19T02:15:59;99312.84;;;17.59;64.50
8573;BME280;4324;42.012;24.872;2023-09-19T02:18:27;99309.34;;;17.59;65.01
8573;BME280;4324;42.012;24.872;2023-09-19T02:20:55;99316.56;;;17.65;64.76
8573;BME280;4324;42.012;24.872;2023-09-19T02:23:24;99303.19;;;17.65;64.94
8573;BME280;4324;42.012;24.872;2023-09-19T02:25:54;99298.44;;;17.67;65.06
8573;BME280;4324;42.012;24.872;2023-09-19T02:28:22;99301.31;;;17.72;64.95
8573;BME280;4324;42.012;24.872;2023-09-19T02:30:49;99294.31;;;17.71;65.00
8573;BME280;4324;42.012;24.872;2023-09-19T02:33:16;99294.56;;;17.76;64.82
8573;BME280;4324;42.012;24.872;2023-09-19T02:35:46;99302.59;;;17.76;64.76
8573;BME280;4324;42.012;24.872;2023-09-19T02:38:13;99291.84;;;17.70;64.66
8573;BME280;4324;42.012;24.872;2023-09-19T02:40:46;99284.44;;;17.58;64.88
8573;BME280;4324;42.012;24.872;2023-09-19T02:43:13;99288.97;;;17.58;65.01
8573;BME280;4324;42.012;24.872;2023-09-19T02:45:40;99270.19;;;17.45;65.09
8573;BME280;4324;42.012;24.872;2023-09-19T02:48:07;99280.09;;;17.51;65.30
8573;BME280;4324;42.012;24.872;2023-09-19T02:50:34;99290.81;;;17.64;65.26
8573;BME280;4324;42.012;24.872;2023-09-19T02:53:03;99289.38;;;17.61;65.55
8573;BME280;4324;42.012;24.872;2023-09-19T02:55:30;99286.47;;;17.63;65.39
8573;BME280;4324;42.012;24.872;2023-09-19T02:57:57;99282.38;;;17.67;65.32
8573;BME280;4324;42.012;24.872;2023-09-19T03:00:24;99265.88;;;17.57;65.15
8573;BME280;4324;42.012;24.872;2023-09-19T03:02:53;99294.72;;;17.75;64.96
8573;BME280;4324;42.012;24.872;2023-09-19T03:05:21;99282.16;;;17.62;64.66
8573;BME280;4324;42.012;24.872;2023-09-19T03:07:49;99291.03;;;17.69;65.00
8573;BME280;4324;42.012;24.872;2023-09-19T03:10:18;99293.50;;;17.71;64.95
8573;BME280;4324;42.012;24.872;2023-09-19T03:12:46;99296.81;;;17.73;64.97
8573;BME280;4324;42.012;24.872;2023-09-19T03:15:13;99290.81;;;17.64;65.22
8573;BME280;4324;42.012;24.872;2023-09-19T03:17:43;99298.84;;;17.64;65.28
8573;BME280;4324;42.012;24.872;2023-09-19T03:20:11;99283.59;;;17.58;65.28
8573;BME280;4324;42.012;24.872;2023-09-19T03:22:39;99298.66;;;17.65;64.96
8573;BME280;4324;42.012;24.872;2023-09-19T03:25:07;99296.38;;;17.62;65.29
8573;BME280;4324;42.012;24.872;2023-09-19T03:27:35;99296.34;;;17.56;65.28
8573;BME280;4324;42.012;24.872;2023-09-19T03:30:03;99296.16;;;17.51;65.34
8573;BME280;4324;42.012;24.872;2023-09-19T03:32:33;99294.28;;;17.45;65.35
8573;BME280;4324;42.012;24.872;2023-09-19T03:35:01;99297.38;;;17.41;65.29
8573;BME280;4324;42.012;24.872;2023-09-19T03:37:30;99303.53;;;17.35;65.56
8573;BME280;4324;42.012;24.872;2023-09-19T03:39:58;99298.78;;;17.31;65.46
8573;BME280;4324;42.012;24.872;2023-09-19T03:42:28;99295.69;;;17.27;65.58
8573;BME280;4324;42.012;24.872;2023-09-19T03:44:56;99281.47;;;17.13;65.57
8573;BME280;4324;42.012;24.872;2023-09-19T03:47:23;99303.72;;;17.21;65.77
8573;BME280;4324;42.012;24.872;2023-09-19T03:49:50;99304.75;;;17.26;65.54
8573;BME280;4324;42.012;24.872;2023-09-19T03:52:17;99308.25;;;17.27;65.38
8573;BME280;4324;42.012;24.872;2023-09-19T03:54:44;99300.22;;;17.27;65.44
8573;BME280;4324;42.012;24.872;2023-09-19T03:57:11;99245.38;;;16.96;65.52
8573;BME280;4324;42.012;24.872;2023-09-19T03:59:41;99286.81;;;17.20;65.75
8573;BME280;4324;42.012;24.872;2023-09-19T04:02:09;99301.66;;;17.29;65.67
8573;BME280;4324;42.012;24.872;2023-09-19T04:04:47;99298.34;;;17.27;65.88
8573;BME280;4324;42.012;24.872;2023-09-19T04:07:14;99269.91;;;17.06;65.88
8573;BME280;4324;42.012;24.872;2023-09-19T04:09:41;99300.44;;;17.25;65.91
8573;BME280;4324;42.012;24.872;2023-09-19T04:12:08;99295.25;;;17.24;66.02
8573;BME280;4324;42.012;24.872;2023-09-19T04:14:35;99298.94;;;17.16;66.08
8573;BME280;4324;42.012;24.872;2023-09-19T04:17:02;99305.97;;;17.17;66.05
8573;BME280;4324;42.012;24.872;2023-09-19T04:19:32;99306.56;;;17.19;66.36
8573;BME280;4324;42.012;24.872;2023-09-19T04:21:59;99307.00;;;17.23;66.37
8573;BME280;4324;42.012;24.872;2023-09-19T04:24:26;99302.84;;;17.20;66.36
8573;BME280;4324;42.012;24.872;2023-09-19T04:26:53;99309.88;;;17.21;66.36
8573;BME280;4324;42.012;24.872;2023-09-19T04:29:19;99301.44;;;17.17;66.33
8573;BME280;4324;42.012;24.872;2023-09-19T04:31:47;99310.31;;;17.31;66.08
8573;BME280;4324;42.012;24.872;2023-09-19T04:34:14;99305.81;;;17.32;66.16
8573;BME280;4324;42.012;24.872;2023-09-19T04:36:44;99313.22;;;17.36;66.13
8573;BME280;4324;42.012;24.872;2023-09-19T04:39:11;99314.03;;;17.37;66.30
8573;BME280;4324;42.012;24.872;2023-09-19T04:41:38;99299.59;;;17.31;66.05
8573;BME280;4324;42.012;24.872;2023-09-19T04:44:07;99307.03;;;17.36;66.00
8573;BME280;4324;42.012;24.872;2023-09-19T04:46:34;99303.13;;;17.38;66.11
8573;BME280;4324;42.012;24.872;2023-09-19T04:49:01;99308.31;;;17.47;65.95
8573;BME280;4324;42.012;24.872;2023-09-19T04:51:28;99302.31;;;17.45;66.00
8573;BME280;4324;42.012;24.872;2023-09-19T04:54:01;99302.31;;;17.45;65.92
8573;BME280;4324;42.012;24.872;2023-09-19T04:56:28;99308.50;;;17.45;65.99
8573;BME280;4324;42.012;24.872;2023-09-19T04:58:55;99285.59;;;17.29;66.11
8573;BME280;4324;42.012;24.872;2023-09-19T05:01:24;99298.00;;;17.44;66.07
8573;BME280;4324;42.012;24.872;2023-09-19T05:03:51;99307.06;;;17.56;66.05
8573;BME280;4324;42.012;24.872;2023-09-19T05:06:18;99307.91;;;17.63;65.81
8573;BME280;4324;42.012;24.872;2023-09-19T05:08:46;99310.38;;;17.71;65.59
8573;BME280;4324;42.012;24.872;2023-09-19T05:11:18;99307.53;;;17.79;65.71
8573;BME280;4324;42.012;24.872;2023-09-19T05:13:47;99299.91;;;17.89;65.41
8573;BME280;4324;42.012;24.872;2023-09-19T05:16:15;99286.72;;;17.81;65.08
8573;BME280;4324;42.012;24.872;2023-09-19T05:18:43;99293.53;;;17.84;65.38
8573;BME280;4324;42.012;24.872;2023-09-19T05:21:10;99259.47;;;17.64;65.23
8573;BME280;4324;42.012;24.872;2023-09-19T05:23:38;99294.34;;;17.78;65.34
8573;BME280;4324;42.012;24.872;2023-09-19T05:26:05;99282.41;;;17.80;65.22
8573;BME280;4324;42.012;24.872;2023-09-19T05:28:34;99291.47;;;17.93;65.15
8573;BME280;4324;42.012;24.872;2023-09-19T05:31:01;99293.53;;;17.90;65.10
8573;BME280;4324;42.012;24.872;2023-09-19T05:33:28;99303.63;;;18.02;65.04
8573;BME280;4324;42.012;24.872;2023-09-19T05:35:56;99283.22;;;18.07;64.67
8573;BME280;4324;42.012;24.872;2023-09-19T05:38:23;99271.06;;;18.05;64.63
8573;BME280;4324;42.012;24.872;2023-09-19T05:40:52;99294.75;;;18.21;64.54
8573;BME280;4324;42.012;24.872;2023-09-19T05:43:19;99283.81;;;18.23;64.40
8573;BME280;4324;42.012;24.872;2023-09-19T05:45:47;99292.66;;;18.30;64.29
8573;BME280;4324;42.012;24.872;2023-09-19T05:48:17;99294.31;;;18.37;64.11
8573;BME280;4324;42.012;24.872;2023-09-19T05:50:46;99290.34;;;18.60;63.89
8573;BME280;4324;42.012;24.872;2023-09-19T05:53:14;99276.28;;;18.71;63.57
8573;BME280;4324;42.012;24.872;2023-09-19T05:55:41;99278.94;;;18.84;63.24
8573;BME280;4324;42.012;24.872;2023-09-19T05:58:08;99290.81;;;19.02;62.92
8573;BME280;4324;42.012;24.872;2023-09-19T06:00:35;99291.56;;;19.22;62.69
8573;BME280;4324;42.012;24.872;2023-09-19T06:03:04;99304.69;;;19.37;62.25
8573;BME280;4324;42.012;24.872;2023-09-19T06:05:31;99284.03;;;19.38;61.93
8573;BME280;4324;42.012;24.872;2023-09-19T06:07:58;99301.84;;;19.57;61.78
8573;BME280;4324;42.012;24.872;2023-09-19T06:10:26;99290.09;;;19.58;61.60
8573;BME280;4324;42.012;24.872;2023-09-19T06:12:55;99288.81;;;19.67;61.53
8573;BME280;4324;42.012;24.872;2023-09-19T06:15:23;99278.59;;;19.76;61.15
8573;BME280;4324;42.012;24.872;2023-09-19T06:17:52;99283.66;;;19.91;61.01
8573;BME280;4324;42.012;24.872;2023-09-19T06:20:22;99272.47;;;19.94;60.77
8573;BME280;4324;42.012;24.872;2023-09-19T06:22:49;99289.25;;;20.14;60.57
8573;BME280;4324;42.012;24.872;2023-09-19T06:25:17;99275.16;;;20.19;60.47
8573;BME280;4324;42.012;24.872;2023-09-19T06:27:44;99280.75;;;20.36;59.99
8573;BME280;4324;42.012;24.872;2023-09-19T06:30:12;99276.97;;;20.43;59.84
8573;BME280;4324;42.012;24.872;2023-09-19T06:32:39;99267.34;;;20.54;59.69
8573;BME280;4324;42.012;24.872;2023-09-19T06:35:09;99272.34;;;20.69;59.21
8573;BME280;4324;42.012;24.872;2023-09-19T06:37:38;99279.47;;;20.82;58.83
8573;BME280;4324;42.012;24.872;2023-09-19T06:40:08;99267.81;;;20.88;58.65
8573;BME280;4324;42.012;24.872;2023-09-19T06:42:41;99251.66;;;20.88;58.32
8573;BME280;4324;42.012;24.872;2023-09-19T06:45:10;99267.91;;;21.11;57.85
8573;BME280;4324;42.012;24.872;2023-09-19T06:47:39;99266.06;;;21.23;57.80
8573;BME280;4324;42.012;24.872;2023-09-19T06:50:06;99264.16;;;21.42;57.41
8573;BME280;4324;42.012;24.872;2023-09-19T06:52:40;99263.97;;;21.56;57.04
8573;BME280;4324;42.012;24.872;2023-09-19T06:55:07;99249.44;;;21.68;56.96
8573;BME280;4324;42.012;24.872;2023-09-19T06:57:35;99260.13;;;21.87;56.26
8573;BME280;4324;42.012;24.872;2023-09-19T07:00:02;99265.31;;;22.00;56.12
8573;BME280;4324;42.012;24.872;2023-09-19T07:02:35;99254.53;;;22.12;55.94
8573;BME280;4324;42.012;24.872;2023-09-19T07:05:01;99259.81;;;22.30;55.16
8573;BME280;4324;42.012;24.872;2023-09-19T07:07:28;99266.84;;;22.43;54.95
8573;BME280;4324;42.012;24.872;2023-09-19T07:09:57;99266.00;;;22.54;54.59
8573;BME280;4324;42.012;24.872;2023-09-19T07:12:24;99267.38;;;22.68;54.91
8573;BME280;4324;42.012;24.872;2023-09-19T07:14:51;99251.88;;;22.76;54.78
8573;BME280;4324;42.012;24.872;2023-09-19T07:17:18;99245.53;;;22.82;54.62
8573;BME280;4324;42.012;24.872;2023-09-19T07:19:47;99254.06;;;22.90;54.71
8573;BME280;4324;42.012;24.872;2023-09-19T07:22:14;99254.31;;;22.89;54.86
8573;BME280;4324;42.012;24.872;2023-09-19T07:24:41;99251.16;;;22.92;54.92
8573;BME280;4324;42.012;24.872;2023-09-19T07:27:09;99245.06;;;22.85;55.02
8573;BME280;4324;42.012;24.872;2023-09-19T07:29:36;99225.34;;;22.73;55.36
8573;BME280;4324;42.012;24.872;2023-09-19T07:32:04;99241.28;;;22.86;55.28
8573;BME280;4324;42.012;24.872;2023-09-19T07:34:32;99229.88;;;22.84;55.45
8573;BME280;4324;42.012;24.872;2023-09-19T07:37:01;99238.09;;;22.89;55.26
8573;BME280;4324;42.012;24.872;2023-09-19T07:39:29;99214.28;;;22.86;55.49
8573;BME280;4324;42.012;24.872;2023-09-19T07:41:56;99229.84;;;23.07;55.62
8573;BME280;4324;42.012;24.872;2023-09-19T07:44:25;99224.53;;;23.12;55.18
8573;BME280;4324;42.012;24.872;2023-09-19T07:46:52;99231.56;;;23.13;55.20
8573;BME280;4324;42.012;24.872;2023-09-19T07:49:20;99216.47;;;23.01;55.28
8573;BME280;4324;42.012;24.872;2023-09-19T07:51:47;99163.03;;;22.74;55.41
8573;BME280;4324;42.012;24.872;2023-09-19T07:54:14;99161.34;;;22.85;55.30
8573;BME280;4324;42.012;24.872;2023-09-19T07:56:42;99200.13;;;23.24;54.87
8573;BME280;4324;42.012;24.872;2023-09-19T07:59:11;99215.72;;;23.51;54.79
8573;BME280;4324;42.012;24.872;2023-09-19T08:01:40;99205.09;;;23.61;54.48
8573;BME280;4324;42.012;24.872;2023-09-19T08:04:09;99213.47;;;23.76;54.35
8573;BME280;4324;42.012;24.872;2023-09-19T08:06:36;99208.63;;;23.78;54.03
8573;BME280;4324;42.012;24.872;2023-09-19T08:09:04;99212.53;;;23.87;53.95
8573;BME280;4324;42.012;24.872;2023-09-19T08:11:35;99199.03;;;23.87;53.90
8573;BME280;4324;42.012;24.872;2023-09-19T08:14:02;99210.81;;;23.98;53.61
8573;BME280;4324;42.012;24.872;2023-09-19T08:16:31;99205.56;;;24.08;53.42
8573;BME280;4324;42.012;24.872;2023-09-19T08:18:59;99197.50;;;24.13;53.36
8573;BME280;4324;42.012;24.872;2023-09-19T08:21:26;99191.69;;;24.22;53.14
8573;BME280;4324;42.012;24.872;2023-09-19T08:23:55;99182.00;;;24.26;52.88
8573;BME280;4324;42.012;24.872;2023-09-19T08:26:22;99183.44;;;24.33;52.70
8573;BME280;4324;42.012;24.872;2023-09-19T08:28:50;99196.81;;;24.40;52.77
8573;BME280;4324;42.012;24.872;2023-09-19T08:31:20;99193.41;;;24.50;52.35
8573;BME280;4324;42.012;24.872;2023-09-19T08:33:48;99174.28;;;24.56;52.05
8573;BME280;4324;42.012;24.872;2023-09-19T08:36:18;99168.47;;;24.70;52.09
8573;BME280;4324;42.012;24.872;2023-09-19T08:38:45;99177.31;;;24.87;51.86
8573;BME280;4324;42.012;24.872;2023-09-19T08:41:12;99172.56;;;24.99;51.44
8573;BME280;4324;42.012;24.872;2023-09-19T08:43:39;99164.38;;;24.94;51.57
8573;BME280;4324;42.012;24.872;2023-09-19T08:46:10;99156.22;;;24.89;51.17
8573;BME280;4324;42.012;24.872;2023-09-19T08:48:39;99163.34;;;25.00;51.47
8573;BME280;4324;42.012;24.872;2023-09-19T08:51:21;99152.56;;;25.05;51.15
8573;BME280;4324;42.012;24.872;2023-09-19T08:54:00;99160.69;;;25.05;51.26
8573;BME280;4324;42.012;24.872;2023-09-19T08:56:32;99135.50;;;25.05;51.11
8573;BME280;4324;42.012;24.872;2023-09-19T08:59:02;99137.75;;;25.13;50.71
8573;BME280;4324;42.012;24.872;2023-09-19T09:01:31;99128.81;;;25.13;50.77
8573;BME280;4324;42.012;24.872;2023-09-19T09:03:58;99131.41;;;25.29;50.33
8573;BME280;4324;42.012;24.872;2023-09-19T09:06:27;99132.22;;;25.30;49.81
8573;BME280;4324;42.012;24.872;2023-09-19T09:08:54;99147.41;;;25.36;49.74
8573;BME280;4324;42.012;24.872;2023-09-19T09:11:22;99145.16;;;25.23;49.51
8573;BME280;4324;42.012;24.872;2023-09-19T09:13:50;99127.25;;;24.95;49.58
8573;BME280;4324;42.012;24.872;2023-09-19T09:16:17;99136.97;;;24.91;49.54
8573;BME280;4324;42.012;24.872;2023-09-19T09:18:44;99132.84;;;24.83;49.42
8573;BME280;4324;42.012;24.872;2023-09-19T09:21:12;99131.75;;;24.84;49.43
8573;BME280;4324;42.012;24.872;2023-09-19T09:23:42;99140.50;;;24.91;49.47
8573;BME280;4324;42.012;24.872;2023-09-19T09:26:10;99136.78;;;24.97;48.88
8573;BME280;4324;42.012;24.872;2023-09-19T09:28:44;99134.66;;;24.99;48.72
8573;BME280;4324;42.012;24.872;2023-09-19T09:31:22;99120.00;;;25.00;48.77
8573;BME280;4324;42.012;24.872;2023-09-19T09:33:53;99117.84;;;25.02;48.75
8573;BME280;4324;42.012;24.872;2023-09-19T09:36:33;99121.78;;;25.12;48.49
8573;BME280;4324;42.012;24.872;2023-09-19T09:39:04;99114.78;;;25.21;48.29
8573;BME280;4324;42.012;24.872;2023-09-19T09:41:44;99116.69;;;25.20;48.24
8573;BME280;4324;42.012;24.872;2023-09-19T09:44:15;99110.75;;;25.23;48.30
8573;BME280;4324;42.012;24.872;2023-09-19T09:46:43;99113.66;;;25.17;48.34
8573;BME280;4324;42.012;24.872;2023-09-19T09:49:48;99081.59;;;25.08;48.06
8573;BME280;4324;42.012;24.872;2023-09-19T09:52:19;99103.94;;;25.21;48.07
8573;BME280;4324;42.012;24.872;2023-09-19T09:55:01;99043.06;;;24.96;48.01
8573;BME280;4324;42.012;24.872;2023-09-19T09:57:31;99096.78;;;25.42;47.54
8573;BME280;4324;42.012;24.872;2023-09-19T09:59:59;99090.88;;;25.50;47.30
8573;BME280;4324;42.012;24.872;2023-09-19T10:02:42;99105.91;;;25.73;46.97
8573;BME280;4324;42.012;24.872;2023-09-19T10:05:13;99093.47;;;25.77;46.19
8573;BME280;4324;42.012;24.872;2023-09-19T10:07:46;99088.84;;;25.72;46.33
8573;BME280;4324;42.012;24.872;2023-09-19T10:10:29;99085.41;;;25.82;46.17
8573;BME280;4324;42.012;24.872;2023-09-19T10:13:05;99088.16;;;25.92;46.04
8573;BME280;4324;42.012;24.872;2023-09-19T10:15:33;99091.72;;;25.98;45.94
8573;BME280;4324;42.012;24.872;2023-09-19T10:18:04;99092.84;;;26.07;45.85
8573;BME280;4324;42.012;24.872;2023-09-19T10:20:34;99079.00;;;26.14;46.00
8573;BME280;4324;42.012;24.872;2023-09-19T10:23:06;99073.34;;;26.20;45.58
8573;BME280;4324;42.012;24.872;2023-09-19T10:25:40;99075.84;;;26.37;45.37
8573;BME280;4324;42.012;24.872;2023-09-19T10:28:09;99075.91;;;26.52;45.19
8573;BME280;4324;42.012;24.872;2023-09-19T10:30:38;99072.66;;;26.66;44.86
8573;BME280;4324;42.012;24.872;2023-09-19T10:33:10;99054.47;;;26.71;44.52
8573;BME280;4324;42.012;24.872;2023-09-19T10:35:38;99071.03;;;26.80;43.80
8573;BME280;4324;42.012;24.872;2023-09-19T10:38:07;99068.34;;;26.75;43.73
8573;BME280;4324;42.012;24.872;2023-09-19T10:40:40;99062.09;;;26.74;43.57
8573;BME280;4324;42.012;24.872;2023-09-19T10:43:12;99059.63;;;26.73;43.37
8573;BME280;4324;42.012;24.872;2023-09-19T10:45:41;99053.38;;;26.83;43.35
8573;BME280;4324;42.012;24.872;2023-09-19T10:48:10;99053.38;;;26.88;43.22
8573;BME280;4324;42.012;24.872;2023-09-19T10:50:44;99046.06;;;26.93;43.32
8573;BME280;4324;42.012;24.872;2023-09-19T10:53:14;99036.81;;;27.10;43.14
8573;BME280;4324;42.012;24.872;2023-09-19T10:55:51;99018.88;;;26.98;42.57
8573;BME280;4324;42.012;24.872;2023-09-19T10:58:30;99014.81;;;26.96;42.48
8573;BME280;4324;42.012;24.872;2023-09-19T11:01:00;99027.03;;;26.98;42.66
8573;BME280;4324;42.012;24.872;2023-09-19T11:03:37;99029.19;;;27.01;42.31
8573;BME280;4324;42.012;24.872;2023-09-19T11:06:11;99027.59;;;27.11;42.24
8573;BME280;4324;42.012;24.872;2023-09-19T11:08:56;99026.22;;;27.23;42.08
8573;BME280;4324;42.012;24.872;2023-09-19T11:11:42;98961.53;;;26.95;41.80
8573;BME280;4324;42.012;24.872;2023-09-19T11:14:15;99011.53;;;27.30;41.62
8573;BME280;4324;42.012;24.872;2023-09-19T11:20:24;99004.94;;;27.51;41.50
8573;BME280;4324;42.012;24.872;2023-09-19T11:23:23;98998.38;;;27.62;41.32
8573;BME280;4324;42.012;24.872;2023-09-19T11:25:55;98989.94;;;27.59;41.27
8573;BME280;4324;42.012;24.872;2023-09-19T11:28:35;98998.09;;;27.64;40.99
8573;BME280;4324;42.012;24.872;2023-09-19T11:34:44;98982.63;;;27.54;40.84
8573;BME280;4324;42.012;24.872;2023-09-19T11:40:28;98982.00;;;27.72;40.86
8573;BME280;4324;42.012;24.872;2023-09-19T11:42:56;98963.25;;;27.66;40.91
8573;BME280;4324;42.012;24.872;2023-09-19T11:48:29;98966.53;;;27.78;40.05
8573;BME280;4324;42.012;24.872;2023-09-19T11:50:58;98963.19;;;27.86;39.89
8573;BME280;4324;42.012;24.872;2023-09-19T11:53:31;98963.16;;;27.91;39.55
8573;BME280;4324;42.012;24.872;2023-09-19T11:56:04;98956.88;;;28.01;39.79
8573;BME280;4324;42.012;24.872;2023-09-19T11:58:37;98914.47;;;27.90;38.94
8573;BME280;4324;42.012;24.872;2023-09-19T12:01:05;98954.00;;;28.21;38.86
8573;BME280;4324;42.012;24.872;2023-09-19T12:03:42;98939.00;;;28.24;38.56
8573;BME280;4324;42.012;24.872;2023-09-19T12:06:14;98941.06;;;28.42;38.29
8573;BME280;4324;42.012;24.872;2023-09-19T12:08:42;98937.34;;;28.62;38.32
8573;BME280;4324;42.012;24.872;2023-09-19T12:11:13;98931.00;;;28.72;38.27
8573;BME280;4324;42.012;24.872;2023-09-19T12:13:43;98939.13;;;28.77;38.14
8573;BME280;4324;42.012;24.872;2023-09-19T12:16:14;98928.13;;;28.58;37.94
8573;BME280;4324;42.012;24.872;2023-09-19T12:18:44;98926.59;;;28.47;37.97
8573;BME280;4324;42.012;24.872;2023-09-19T12:21:23;98924.84;;;28.27;38.48
8573;BME280;4324;42.012;24.872;2023-09-19T12:26:46;98925.59;;;28.38;38.31
8573;BME280;4324;42.012;24.872;2023-09-19T12:29:15;98923.94;;;28.37;38.14
8573;BME280;4324;42.012;24.872;2023-09-19T12:31:51;98930.25;;;28.37;38.19
8573;BME280;4324;42.012;24.872;2023-09-19T12:34:22;98918.25;;;28.33;38.13
8573;BME280;4324;42.012;24.872;2023-09-19T12:37:07;98918.25;;;28.38;38.15
8573;BME280;4324;42.012;24.872;2023-09-19T12:39:42;98909.00;;;28.34;37.93
8573;BME280;4324;42.012;24.872;2023-09-19T12:42:12;98917.63;;;28.46;37.69
8573;BME280;4324;42.012;24.872;2023-09-19T12:44:42;98908.06;;;28.49;37.79
8573;BME280;4324;42.012;24.872;2023-09-19T12:47:13;98915.91;;;28.56;37.72
8573;BME280;4324;42.012;24.872;2023-09-19T12:50:09;98910.97;;;28.63;37.53
8573;BME280;4324;42.012;24.872;2023-09-19T12:52:45;98910.84;;;28.73;37.52
8573;BME280;4324;42.012;24.872;2023-09-19T12:55:23;98913.75;;;28.82;37.25
8573;BME280;4324;42.012;24.872;2023-09-19T12:58:03;98905.44;;;28.68;37.34
8573;BME280;4324;42.012;24.872;2023-09-19T13:00:36;98902.25;;;28.61;37.66
8573;BME280;4324;42.012;24.872;2023-09-19T13:03:24;98910.34;;;28.66;37.77
8573;BME280;4324;42.012;24.872;2023-09-19T13:05:54;98900.97;;;28.77;37.56
8573;BME280;4324;42.012;24.872;2023-09-19T13:08:25;98901.69;;;28.88;37.20
8573;BME280;4324;42.012;24.872;2023-09-19T13:11:02;98887.84;;;28.84;36.93
8573;BME280;4324;42.012;24.872;2023-09-19T13:13:29;98896.47;;;28.91;37.24
8573;BME280;4324;42.012;24.872;2023-09-19T13:15:56;98887.56;;;28.86;37.30
8573;BME280;4324;42.012;24.872;2023-09-19T13:18:23;98886.28;;;28.78;37.33
8573;BME280;4324;42.012;24.872;2023-09-19T13:21:07;98881.50;;;28.65;37.62
8573;BME280;4324;42.012;24.872;2023-09-19T13:23:36;98889.97;;;28.63;37.52
8573;BME280;4324;42.012;24.872;2023-09-19T13:26:04;98853.25;;;28.27;37.93
8573;BME280;4324;42.012;24.872;2023-09-19T13:28:31;98854.41;;;28.15;38.18
8573;BME280;4324;42.012;24.872;2023-09-19T13:31:00;98803.31;;;27.68;38.16
8573;BME280;4324;42.012;24.872;2023-09-19T13:33:27;98805.00;;;27.59;38.19
8573;BME280;4324;42.012;24.872;2023-09-19T13:35:54;98880.34;;;28.03;38.51
8573;BME280;4324;42.012;24.872;2023-09-19T13:38:24;98809.97;;;27.52;38.62
8573;BME280;4324;42.012;24.872;2023-09-19T13:40:51;98865.25;;;27.86;38.71
8573;BME280;4324;42.012;24.872;2023-09-19T13:43:18;98829.47;;;27.64;38.76